sensor_id;sensor_type;location;lat;lon;timestamp;P1;durP1;ratioP1;P2;durP2;ratioP2
2452;SDS011;63678;47.994;7.854;2023-04-02T00:04:11;5.20;;;2.20;;
2452;SDS011;63678;47.994;7.854;2023-04-02T00:07:17;5.45;;;2.45;;
2452;SDS011;63678;47.994;7.854;2023-04-02T00:10:00;6.72;;;2.50;;
2452;SDS011;63678;47.994;7.854;2023-04-02T00:12:33;4.60;;;2.10;;
2452;SDS011;63678;47.994;7.854;2023-04-02T00:15:07;6.28;;;2.50;;
2452;SDS011;63678;47.994;7.854;2023-04-02T00:17:43;5.25;;;2.67;;
2452;SDS011;63678;47.994;7.854;2023-04-02T00:20:16;3.95;;;2.30;;
2452;SDS011;63678;47.994;7.854;2023-04-02T00:22:50;5.43;;;2.38;;
2452;SDS011;63678;47.994;7.854;2023-04-02T00:25:24;6.55;;;2.65;;
2452;SDS011;63678;47.994;7.854;2023-04-02T00:27:59;5.45;;;2.83;;
2452;SDS011;63678;47.994;7.854;2023-04-02T00:30:31;6.07;;;2.50;;
2452;SDS011;63678;47.994;7.854;2023-04-02T00:33:03;6.93;;;2.30;;
2452;SDS011;63678;47.994;7.854;2023-04-02T00:35:36;4.32;;;1.95;;
2452;SDS011;63678;47.994;7.854;2023-04-02T00:38:14;5.57;;;2.10;;
2452;SDS011;63678;47.994;7.854;2023-04-02T00:41:01;5.10;;;2.20;;
2452;SDS011;63678;47.994;7.854;2023-04-02T00:43:36;5.68;;;2.08;;
2452;SDS011;63678;47.994;7.854;2023-04-02T00:46:10;5.60;;;2.15;;
2452;SDS011;63678;47.994;7.854;2023-04-02T00:51:50;5.50;;;2.30;;
2452;SDS011;63678;47.994;7.854;2023-04-02T00:54:28;4.35;;;1.80;;
2452;SDS011;63678;47.994;7.854;2023-04-02T00:57:25;4.00;;;2.10;;
2452;SDS011;63678;47.994;7.854;2023-04-02T01:00:13;3.75;;;2.00;;
2452;SDS011;63678;47.994;7.854;2023-04-02T01:03:13;6.22;;;2.00;;
2452;SDS011;63678;47.994;7.854;2023-04-02T01:06:12;4.53;;;1.80;;
2452;SDS011;63678;47.994;7.854;2023-04-02T01:21:09;3.87;;;1.67;;
2452;SDS011;63678;47.994;7.854;2023-04-02T01:24:03;4.85;;;1.67;;
2452;SDS011;63678;47.994;7.854;2023-04-02T01:26:52;6.22;;;2.35;;
2452;SDS011;63678;47.994;7.854;2023-04-02T01:29:30;4.32;;;2.03;;
2452;SDS011;63678;47.994;7.854;2023-04-02T01:32:12;6.55;;;2.35;;
2452;SDS011;63678;47.994;7.854;2023-04-02T01:34:48;6.82;;;1.60;;
2452;SDS011;63678;47.994;7.854;2023-04-02T01:46:22;7.90;;;2.03;;
2452;SDS011;63678;47.994;7.854;2023-04-02T01:49:09;3.67;;;2.10;;
2452;SDS011;63678;47.994;7.854;2023-04-02T01:52:07;5.63;;;1.95;;
2452;SDS011;63678;47.994;7.854;2023-04-02T01:54:45;4.13;;;1.70;;
2452;SDS011;63678;47.994;7.854;2023-04-02T01:57:18;4.10;;;1.98;;
2452;SDS011;63678;47.994;7.854;2023-04-02T01:59:51;6.30;;;2.13;;
2452;SDS011;63678;47.994;7.854;2023-04-02T02:02:24;4.17;;;1.87;;
2452;SDS011;63678;47.994;7.854;2023-04-02T02:04:58;4.30;;;1.80;;
2452;SDS011;63678;47.994;7.854;2023-04-02T02:07:31;6.05;;;1.90;;
2452;SDS011;63678;47.994;7.854;2023-04-02T02:10:05;3.55;;;2.10;;
2452;SDS011;63678;47.994;7.854;2023-04-02T02:12:43;4.93;;;2.20;;
2452;SDS011;63678;47.994;7.854;2023-04-02T02:15:19;4.85;;;2.00;;
2452;SDS011;63678;47.994;7.854;2023-04-02T02:17:57;4.65;;;2.33;;
2452;SDS011;63678;47.994;7.854;2023-04-02T02:20:34;4.28;;;1.80;;
2452;SDS011;63678;47.994;7.854;2023-04-02T02:23:08;6.00;;;2.22;;
2452;SDS011;63678;47.994;7.854;2023-04-02T02:25:44;6.15;;;2.92;;
2452;SDS011;63678;47.994;7.854;2023-04-02T02:31:06;5.13;;;2.10;;
2452;SDS011;63678;47.994;7.854;2023-04-02T02:33:51;6.40;;;2.83;;
2452;SDS011;63678;47.994;7.854;2023-04-02T02:36:50;6.22;;;2.40;;
2452;SDS011;63678;47.994;7.854;2023-04-02T02:42:54;4.67;;;2.63;;
2452;SDS011;63678;47.994;7.854;2023-04-02T02:45:11;4.07;;;2.17;;
2452;SDS011;63678;47.994;7.854;2023-04-02T02:47:56;6.43;;;2.05;;
2452;SDS011;63678;47.994;7.854;2023-04-02T02:50:30;4.35;;;2.17;;
2452;SDS011;63678;47.994;7.854;2023-04-02T02:53:16;4.90;;;2.15;;
2452;SDS011;63678;47.994;7.854;2023-04-02T02:55:57;4.80;;;2.00;;
2452;SDS011;63678;47.994;7.854;2023-04-02T02:58:37;4.32;;;1.92;;
2452;SDS011;63678;47.994;7.854;2023-04-02T03:01:18;3.72;;;2.10;;
2452;SDS011;63678;47.994;7.854;2023-04-02T03:04:13;10.35;;;2.33;;
2452;SDS011;63678;47.994;7.854;2023-04-02T03:06:56;8.18;;;2.30;;
2452;SDS011;63678;47.994;7.854;2023-04-02T03:09:34;4.10;;;1.83;;
2452;SDS011;63678;47.994;7.854;2023-04-02T03:12:33;4.45;;;2.00;;
2452;SDS011;63678;47.994;7.854;2023-04-02T03:15:34;4.65;;;2.15;;
2452;SDS011;63678;47.994;7.854;2023-04-02T03:22:00;4.78;;;2.30;;
2452;SDS011;63678;47.994;7.854;2023-04-02T03:28:13;4.78;;;1.63;;
2452;SDS011;63678;47.994;7.854;2023-04-02T03:30:58;5.97;;;2.40;;
2452;SDS011;63678;47.994;7.854;2023-04-02T03:33:50;5.68;;;2.10;;
2452;SDS011;63678;47.994;7.854;2023-04-02T03:36:32;6.18;;;1.88;;
2452;SDS011;63678;47.994;7.854;2023-04-02T03:39:21;4.10;;;1.90;;
2452;SDS011;63678;47.994;7.854;2023-04-02T03:42:27;3.78;;;1.90;;
2452;SDS011;63678;47.994;7.854;2023-04-02T03:47:54;4.13;;;2.17;;
2452;SDS011;63678;47.994;7.854;2023-04-02T03:50:49;5.95;;;1.80;;
2452;SDS011;63678;47.994;7.854;2023-04-02T03:53:37;6.83;;;2.90;;
2452;SDS011;63678;47.994;7.854;2023-04-02T03:56:24;4.78;;;2.00;;
2452;SDS011;63678;47.994;7.854;2023-04-02T04:04:55;3.25;;;1.65;;
2452;SDS011;63678;47.994;7.854;2023-04-02T04:07:30;3.93;;;1.60;;
2452;SDS011;63678;47.994;7.854;2023-04-02T04:10:16;4.18;;;1.75;;
2452;SDS011;63678;47.994;7.854;2023-04-02T04:12:55;4.95;;;1.83;;
2452;SDS011;63678;47.994;7.854;2023-04-02T04:18:28;3.70;;;1.35;;
2452;SDS011;63678;47.994;7.854;2023-04-02T04:21:21;3.50;;;1.70;;
2452;SDS011;63678;47.994;7.854;2023-04-02T04:24:23;3.50;;;1.60;;
2452;SDS011;63678;47.994;7.854;2023-04-02T04:27:07;3.25;;;1.40;;
2452;SDS011;63678;47.994;7.854;2023-04-02T04:30:16;3.47;;;1.83;;
2452;SDS011;63678;47.994;7.854;2023-04-02T04:32:59;4.38;;;1.67;;
2452;SDS011;63678;47.994;7.854;2023-04-02T04:35:43;3.40;;;1.57;;
2452;SDS011;63678;47.994;7.854;2023-04-02T04:41:10;3.85;;;1.50;;
2452;SDS011;63678;47.994;7.854;2023-04-02T04:47:02;3.55;;;1.70;;
2452;SDS011;63678;47.994;7.854;2023-04-02T04:49:54;3.20;;;1.60;;
2452;SDS011;63678;47.994;7.854;2023-04-02T04:52:33;3.40;;;1.83;;
2452;SDS011;63678;47.994;7.854;2023-04-02T04:55:45;4.60;;;2.00;;
2452;SDS011;63678;47.994;7.854;2023-04-02T05:01:06;5.07;;;1.73;;
2452;SDS011;63678;47.994;7.854;2023-04-02T05:07:01;3.75;;;1.63;;
2452;SDS011;63678;47.994;7.854;2023-04-02T05:10:13;3.55;;;1.40;;
2452;SDS011;63678;47.994;7.854;2023-04-02T05:13:04;4.47;;;2.15;;
2452;SDS011;63678;47.994;7.854;2023-04-02T05:16:00;3.42;;;1.35;;
2452;SDS011;63678;47.994;7.854;2023-04-02T05:19:03;3.13;;;1.37;;
2452;SDS011;63678;47.994;7.854;2023-04-02T05:22:02;3.10;;;1.50;;
2452;SDS011;63678;47.994;7.854;2023-04-02T05:24:54;3.35;;;1.50;;
2452;SDS011;63678;47.994;7.854;2023-04-02T05:27:40;4.18;;;1.30;;
2452;SDS011;63678;47.994;7.854;2023-04-02T05:30:36;3.10;;;1.35;;
2452;SDS011;63678;47.994;7.854;2023-04-02T05:33:29;4.03;;;1.83;;
2452;SDS011;63678;47.994;7.854;2023-04-02T05:36:08;3.22;;;1.83;;
2452;SDS011;63678;47.994;7.854;2023-04-02T05:38:54;3.10;;;1.50;;
2452;SDS011;63678;47.994;7.854;2023-04-02T05:44:54;3.08;;;1.42;;
2452;SDS011;63678;47.994;7.854;2023-04-02T05:47:37;3.10;;;1.50;;
2452;SDS011;63678;47.994;7.854;2023-04-02T05:50:18;3.72;;;1.63;;
2452;SDS011;63678;47.994;7.854;2023-04-02T05:53:16;3.20;;;1.50;;
2452;SDS011;63678;47.994;7.854;2023-04-02T05:59:06;3.00;;;1.70;;
2452;SDS011;63678;47.994;7.854;2023-04-02T06:01:50;4.13;;;1.50;;
2452;SDS011;63678;47.994;7.854;2023-04-02T06:04:44;3.03;;;1.50;;
2452;SDS011;63678;47.994;7.854;2023-04-02T06:07:22;3.08;;;1.58;;
2452;SDS011;63678;47.994;7.854;2023-04-02T06:10:29;4.55;;;2.22;;
2452;SDS011;63678;47.994;7.854;2023-04-02T06:13:28;3.40;;;1.60;;
2452;SDS011;63678;47.994;7.854;2023-04-02T06:16:00;3.37;;;1.77;;
2452;SDS011;63678;47.994;7.854;2023-04-02T06:18:37;2.97;;;1.45;;
2452;SDS011;63678;47.994;7.854;2023-04-02T06:21:10;4.15;;;1.50;;
2452;SDS011;63678;47.994;7.854;2023-04-02T06:23:57;2.92;;;1.40;;
2452;SDS011;63678;47.994;7.854;2023-04-02T06:26:38;5.82;;;1.70;;
2452;SDS011;63678;47.994;7.854;2023-04-02T06:32:14;3.45;;;1.40;;
2452;SDS011;63678;47.994;7.854;2023-04-02T06:34:48;2.90;;;1.30;;
2452;SDS011;63678;47.994;7.854;2023-04-02T06:43:38;4.50;;;2.00;;
2452;SDS011;63678;47.994;7.854;2023-04-02T06:46:52;4.43;;;1.92;;
2452;SDS011;63678;47.994;7.854;2023-04-02T06:49:37;3.28;;;1.48;;
2452;SDS011;63678;47.994;7.854;2023-04-02T06:52:36;4.07;;;1.90;;
2452;SDS011;63678;47.994;7.854;2023-04-02T06:55:25;3.22;;;1.45;;
2452;SDS011;63678;47.994;7.854;2023-04-02T06:58:13;5.15;;;2.20;;
2452;SDS011;63678;47.994;7.854;2023-04-02T07:00:48;4.85;;;1.60;;
2452;SDS011;63678;47.994;7.854;2023-04-02T07:03:30;20.05;;;7.88;;
2452;SDS011;63678;47.994;7.854;2023-04-02T07:06:23;4.57;;;1.88;;
2452;SDS011;63678;47.994;7.854;2023-04-02T07:09:00;3.35;;;1.70;;
2452;SDS011;63678;47.994;7.854;2023-04-02T07:11:34;4.17;;;2.20;;
2452;SDS011;63678;47.994;7.854;2023-04-02T07:14:10;4.05;;;1.70;;
2452;SDS011;63678;47.994;7.854;2023-04-02T07:16:44;3.75;;;1.70;;
2452;SDS011;63678;47.994;7.854;2023-04-02T07:19:18;3.95;;;1.70;;
2452;SDS011;63678;47.994;7.854;2023-04-02T07:21:57;3.30;;;1.60;;
2452;SDS011;63678;47.994;7.854;2023-04-02T07:24:35;3.10;;;1.30;;
2452;SDS011;63678;47.994;7.854;2023-04-02T07:27:09;4.00;;;1.60;;
2452;SDS011;63678;47.994;7.854;2023-04-02T07:29:47;3.28;;;1.60;;
2452;SDS011;63678;47.994;7.854;2023-04-02T07:32:19;3.65;;;1.52;;
2452;SDS011;63678;47.994;7.854;2023-04-02T07:34:51;3.35;;;1.60;;
2452;SDS011;63678;47.994;7.854;2023-04-02T07:37:24;3.03;;;1.60;;
2452;SDS011;63678;47.994;7.854;2023-04-02T07:39:57;2.95;;;1.50;;
2452;SDS011;63678;47.994;7.854;2023-04-02T07:42:29;2.90;;;1.40;;
2452;SDS011;63678;47.994;7.854;2023-04-02T07:45:01;3.40;;;1.60;;
2452;SDS011;63678;47.994;7.854;2023-04-02T07:47:36;3.95;;;1.60;;
2452;SDS011;63678;47.994;7.854;2023-04-02T07:50:08;4.95;;;1.60;;
2452;SDS011;63678;47.994;7.854;2023-04-02T07:52:41;3.20;;;1.63;;
2452;SDS011;63678;47.994;7.854;2023-04-02T07:55:15;3.33;;;1.55;;
2452;SDS011;63678;47.994;7.854;2023-04-02T07:57:49;3.15;;;1.65;;
2452;SDS011;63678;47.994;7.854;2023-04-02T08:00:24;3.20;;;1.60;;
2452;SDS011;63678;47.994;7.854;2023-04-02T08:02:59;3.45;;;1.70;;
2452;SDS011;63678;47.994;7.854;2023-04-02T08:05:31;3.38;;;1.67;;
2452;SDS011;63678;47.994;7.854;2023-04-02T08:08:06;4.53;;;1.88;;
2452;SDS011;63678;47.994;7.854;2023-04-02T08:10:39;3.58;;;1.48;;
2452;SDS011;63678;47.994;7.854;2023-04-02T08:13:11;3.63;;;1.70;;
2452;SDS011;63678;47.994;7.854;2023-04-02T08:15:44;3.10;;;1.75;;
2452;SDS011;63678;47.994;7.854;2023-04-02T08:18:16;3.50;;;1.70;;
2452;SDS011;63678;47.994;7.854;2023-04-02T08:20:53;3.35;;;1.73;;
2452;SDS011;63678;47.994;7.854;2023-04-02T08:23:26;3.10;;;1.70;;
2452;SDS011;63678;47.994;7.854;2023-04-02T08:25:58;3.95;;;1.70;;
2452;SDS011;63678;47.994;7.854;2023-04-02T08:28:31;2.90;;;1.35;;
2452;SDS011;63678;47.994;7.854;2023-04-02T08:31:05;2.97;;;1.40;;
2452;SDS011;63678;47.994;7.854;2023-04-02T08:33:39;3.10;;;1.45;;
2452;SDS011;63678;47.994;7.854;2023-04-02T08:36:15;3.13;;;1.60;;
2452;SDS011;63678;47.994;7.854;2023-04-02T08:38:49;3.13;;;1.58;;
2452;SDS011;63678;47.994;7.854;2023-04-02T08:41:22;3.47;;;1.52;;
2452;SDS011;63678;47.994;7.854;2023-04-02T08:44:06;3.67;;;1.67;;
2452;SDS011;63678;47.994;7.854;2023-04-02T08:46:55;5.00;;;1.40;;
2452;SDS011;63678;47.994;7.854;2023-04-02T08:49:49;3.53;;;2.08;;
2452;SDS011;63678;47.994;7.854;2023-04-02T08:52:32;3.80;;;1.60;;
2452;SDS011;63678;47.994;7.854;2023-04-02T08:55:16;2.97;;;1.60;;
2452;SDS011;63678;47.994;7.854;2023-04-02T08:57:59;3.80;;;1.60;;
2452;SDS011;63678;47.994;7.854;2023-04-02T09:01:08;4.35;;;1.80;;
2452;SDS011;63678;47.994;7.854;2023-04-02T09:04:15;3.00;;;1.50;;
2452;SDS011;63678;47.994;7.854;2023-04-02T09:06:52;2.97;;;1.48;;
2452;SDS011;63678;47.994;7.854;2023-04-02T09:09:26;3.40;;;1.52;;
2452;SDS011;63678;47.994;7.854;2023-04-02T09:11:59;3.10;;;1.60;;
2452;SDS011;63678;47.994;7.854;2023-04-02T09:14:41;4.25;;;1.50;;
2452;SDS011;63678;47.994;7.854;2023-04-02T09:17:20;3.42;;;1.70;;
2452;SDS011;63678;47.994;7.854;2023-04-02T09:22:54;4.05;;;1.80;;
2452;SDS011;63678;47.994;7.854;2023-04-02T09:25:28;4.53;;;1.73;;
2452;SDS011;63678;47.994;7.854;2023-04-02T09:28:03;3.65;;;1.80;;
2452;SDS011;63678;47.994;7.854;2023-04-02T09:30:42;4.80;;;2.20;;
2452;SDS011;63678;47.994;7.854;2023-04-02T09:33:44;3.08;;;1.60;;
2452;SDS011;63678;47.994;7.854;2023-04-02T09:36:30;2.95;;;1.50;;
2452;SDS011;63678;47.994;7.854;2023-04-02T09:41:48;3.50;;;1.50;;
2452;SDS011;63678;47.994;7.854;2023-04-02T09:44:36;3.20;;;1.70;;
2452;SDS011;63678;47.994;7.854;2023-04-02T09:47:23;2.90;;;1.40;;
2452;SDS011;63678;47.994;7.854;2023-04-02T09:50:11;3.20;;;1.50;;
2452;SDS011;63678;47.994;7.854;2023-04-02T09:57:02;3.90;;;1.60;;
2452;SDS011;63678;47.994;7.854;2023-04-02T09:59:05;3.22;;;1.80;;
2452;SDS011;63678;47.994;7.854;2023-04-02T10:01:45;3.78;;;1.45;;
2452;SDS011;63678;47.994;7.854;2023-04-02T10:07:05;2.93;;;1.20;;
2452;SDS011;63678;47.994;7.854;2023-04-02T10:09:37;2.90;;;1.20;;
2452;SDS011;63678;47.994;7.854;2023-04-02T10:12:11;3.33;;;1.60;;
2452;SDS011;63678;47.994;7.854;2023-04-02T10:14:45;2.80;;;1.20;;
2452;SDS011;63678;47.994;7.854;2023-04-02T10:17:20;3.33;;;1.73;;
2452;SDS011;63678;47.994;7.854;2023-04-02T10:20:16;3.03;;;1.50;;
2452;SDS011;63678;47.994;7.854;2023-04-02T10:22:53;2.90;;;1.30;;
2452;SDS011;63678;47.994;7.854;2023-04-02T10:25:26;3.42;;;1.70;;
2452;SDS011;63678;47.994;7.854;2023-04-02T10:28:10;4.28;;;1.83;;
2452;SDS011;63678;47.994;7.854;2023-04-02T10:31:23;2.95;;;1.40;;
2452;SDS011;63678;47.994;7.854;2023-04-02T10:34:03;3.67;;;1.50;;
2452;SDS011;63678;47.994;7.854;2023-04-02T10:42:17;2.90;;;1.40;;
2452;SDS011;63678;47.994;7.854;2023-04-02T10:45:23;3.40;;;1.70;;
2452;SDS011;63678;47.994;7.854;2023-04-02T10:51:52;2.95;;;1.42;;
2452;SDS011;63678;47.994;7.854;2023-04-02T10:57:37;3.00;;;1.40;;
2452;SDS011;63678;47.994;7.854;2023-04-02T11:02:55;2.90;;;1.20;;
2452;SDS011;63678;47.994;7.854;2023-04-02T11:05:41;2.90;;;1.50;;
2452;SDS011;63678;47.994;7.854;2023-04-02T11:08:21;2.80;;;1.40;;
2452;SDS011;63678;47.994;7.854;2023-04-02T11:11:04;2.80;;;1.30;;
2452;SDS011;63678;47.994;7.854;2023-04-02T11:13:46;3.03;;;1.45;;
2452;SDS011;63678;47.994;7.854;2023-04-02T11:16:44;2.87;;;1.23;;
2452;SDS011;63678;47.994;7.854;2023-04-02T11:19:22;3.00;;;1.42;;
2452;SDS011;63678;47.994;7.854;2023-04-02T11:29:51;3.30;;;1.80;;
2452;SDS011;63678;47.994;7.854;2023-04-02T11:32:39;3.30;;;1.63;;
2452;SDS011;63678;47.994;7.854;2023-04-02T11:35:22;3.53;;;1.75;;
2452;SDS011;63678;47.994;7.854;2023-04-02T11:40:43;4.32;;;1.77;;
2452;SDS011;63678;47.994;7.854;2023-04-02T11:48:49;3.38;;;1.42;;
2452;SDS011;63678;47.994;7.854;2023-04-02T11:54:03;3.85;;;1.60;;
2452;SDS011;63678;47.994;7.854;2023-04-02T11:57:18;3.97;;;2.20;;
2452;SDS011;63678;47.994;7.854;2023-04-02T12:06:04;4.15;;;2.25;;
2452;SDS011;63678;47.994;7.854;2023-04-02T12:09:15;6.57;;;3.08;;
2452;SDS011;63678;47.994;7.854;2023-04-02T12:11:57;11.60;;;6.77;;
2452;SDS011;63678;47.994;7.854;2023-04-02T12:14:41;4.38;;;2.00;;
2452;SDS011;63678;47.994;7.854;2023-04-02T12:17:20;6.60;;;1.50;;
2452;SDS011;63678;47.994;7.854;2023-04-02T12:20:12;3.42;;;1.45;;
2452;SDS011;63678;47.994;7.854;2023-04-02T12:22:53;5.80;;;1.55;;
2452;SDS011;63678;47.994;7.854;2023-04-02T12:25:31;3.00;;;1.40;;
2452;SDS011;63678;47.994;7.854;2023-04-02T12:30:49;3.00;;;1.10;;
2452;SDS011;63678;47.994;7.854;2023-04-02T12:33:37;3.60;;;1.40;;
2452;SDS011;63678;47.994;7.854;2023-04-02T12:36:16;3.47;;;1.70;;
2452;SDS011;63678;47.994;7.854;2023-04-02T12:38:53;4.23;;;1.63;;
2452;SDS011;63678;47.994;7.854;2023-04-02T12:41:29;3.22;;;1.42;;
2452;SDS011;63678;47.994;7.854;2023-04-02T12:44:11;3.47;;;1.70;;
2452;SDS011;63678;47.994;7.854;2023-04-02T12:46:49;4.38;;;1.40;;
2452;SDS011;63678;47.994;7.854;2023-04-02T12:49:33;4.15;;;1.80;;
2452;SDS011;63678;47.994;7.854;2023-04-02T12:52:14;4.40;;;1.20;;
2452;SDS011;63678;47.994;7.854;2023-04-02T12:54:50;2.80;;;1.30;;
2452;SDS011;63678;47.994;7.854;2023-04-02T13:00:27;3.25;;;1.48;;
2452;SDS011;63678;47.994;7.854;2023-04-02T13:03:00;3.63;;;1.42;;
2452;SDS011;63678;47.994;7.854;2023-04-02T13:05:48;3.10;;;1.37;;
2452;SDS011;63678;47.994;7.854;2023-04-02T13:08:28;3.25;;;1.35;;
2452;SDS011;63678;47.994;7.854;2023-04-02T13:11:08;3.10;;;1.25;;
2452;SDS011;63678;47.994;7.854;2023-04-02T13:13:42;3.25;;;1.55;;
2452;SDS011;63678;47.994;7.854;2023-04-02T13:18:49;3.27;;;1.63;;
2452;SDS011;63678;47.994;7.854;2023-04-02T13:21:23;4.00;;;1.30;;
2452;SDS011;63678;47.994;7.854;2023-04-02T13:23:58;2.80;;;1.20;;
2452;SDS011;63678;47.994;7.854;2023-04-02T13:26:31;3.05;;;1.52;;
2452;SDS011;63678;47.994;7.854;2023-04-02T13:31:55;3.27;;;1.53;;
2452;SDS011;63678;47.994;7.854;2023-04-02T13:34:36;3.10;;;1.50;;
2452;SDS011;63678;47.994;7.854;2023-04-02T13:37:10;3.13;;;1.30;;
2452;SDS011;63678;47.994;7.854;2023-04-02T13:39:43;3.22;;;1.30;;
2452;SDS011;63678;47.994;7.854;2023-04-02T13:42:15;3.17;;;1.70;;
2452;SDS011;63678;47.994;7.854;2023-04-02T13:44:48;3.73;;;1.83;;
2452;SDS011;63678;47.994;7.854;2023-04-02T13:47:21;4.72;;;1.75;;
2452;SDS011;63678;47.994;7.854;2023-04-02T13:49:54;4.85;;;1.40;;
2452;SDS011;63678;47.994;7.854;2023-04-02T13:52:26;3.83;;;1.83;;
2452;SDS011;63678;47.994;7.854;2023-04-02T13:54:59;3.53;;;1.45;;
2452;SDS011;63678;47.994;7.854;2023-04-02T13:57:31;3.00;;;1.60;;
2452;SDS011;63678;47.994;7.854;2023-04-02T14:00:05;3.35;;;1.60;;
2452;SDS011;63678;47.994;7.854;2023-04-02T14:02:40;3.60;;;1.45;;
2452;SDS011;63678;47.994;7.854;2023-04-02T14:09:13;4.30;;;1.42;;
2452;SDS011;63678;47.994;7.854;2023-04-02T14:11:56;6.38;;;2.00;;
2452;SDS011;63678;47.994;7.854;2023-04-02T14:14:54;4.97;;;1.48;;
2452;SDS011;63678;47.994;7.854;2023-04-02T14:29:55;4.68;;;1.80;;
2452;SDS011;63678;47.994;7.854;2023-04-02T14:35:57;4.80;;;2.30;;
2452;SDS011;63678;47.994;7.854;2023-04-02T14:41:57;3.70;;;1.50;;
2452;SDS011;63678;47.994;7.854;2023-04-02T14:44:38;3.35;;;1.45;;
2452;SDS011;63678;47.994;7.854;2023-04-02T14:47:21;3.25;;;1.85;;
2452;SDS011;63678;47.994;7.854;2023-04-02T14:50:08;3.20;;;1.40;;
2452;SDS011;63678;47.994;7.854;2023-04-02T14:52:44;5.75;;;1.83;;
2452;SDS011;63678;47.994;7.854;2023-04-02T14:55:29;3.63;;;1.80;;
2452;SDS011;63678;47.994;7.854;2023-04-02T14:58:09;5.60;;;2.10;;
2452;SDS011;63678;47.994;7.854;2023-04-02T15:01:01;4.05;;;1.92;;
2452;SDS011;63678;47.994;7.854;2023-04-02T15:04:12;3.88;;;1.90;;
2452;SDS011;63678;47.994;7.854;2023-04-02T15:07:03;3.88;;;2.03;;
2452;SDS011;63678;47.994;7.854;2023-04-02T15:09:57;6.15;;;1.92;;
2452;SDS011;63678;47.994;7.854;2023-04-02T15:12:45;4.00;;;1.67;;
2452;SDS011;63678;47.994;7.854;2023-04-02T15:18:17;4.75;;;1.83;;
2452;SDS011;63678;47.994;7.854;2023-04-02T15:26:50;4.25;;;1.77;;
2452;SDS011;63678;47.994;7.854;2023-04-02T15:35:28;3.28;;;1.60;;
2452;SDS011;63678;47.994;7.854;2023-04-02T15:41:07;6.13;;;1.90;;
2452;SDS011;63678;47.994;7.854;2023-04-02T15:49:41;4.05;;;2.10;;
2452;SDS011;63678;47.994;7.854;2023-04-02T15:55:21;3.63;;;1.90;;
2452;SDS011;63678;47.994;7.854;2023-04-02T16:01:26;4.45;;;2.30;;
2452;SDS011;63678;47.994;7.854;2023-04-02T16:04:32;6.50;;;2.45;;
2452;SDS011;63678;47.994;7.854;2023-04-02T16:13:14;4.13;;;2.05;;
2452;SDS011;63678;47.994;7.854;2023-04-02T16:19:06;4.68;;;2.17;;
2452;SDS011;63678;47.994;7.854;2023-04-02T16:24:58;5.40;;;2.50;;
2452;SDS011;63678;47.994;7.854;2023-04-02T16:30:52;6.78;;;2.67;;
2452;SDS011;63678;47.994;7.854;2023-04-02T16:33:42;4.55;;;2.55;;
2452;SDS011;63678;47.994;7.854;2023-04-02T16:36:41;3.92;;;2.10;;
2452;SDS011;63678;47.994;7.854;2023-04-02T16:48:35;5.60;;;2.70;;
2452;SDS011;63678;47.994;7.854;2023-04-02T16:54:18;3.53;;;1.90;;
2452;SDS011;63678;47.994;7.854;2023-04-02T17:00:32;4.28;;;2.22;;
2452;SDS011;63678;47.994;7.854;2023-04-02T17:06:28;5.40;;;1.85;;
2452;SDS011;63678;47.994;7.854;2023-04-02T17:12:32;8.55;;;3.40;;
2452;SDS011;63678;47.994;7.854;2023-04-02T17:15:19;4.72;;;2.33;;
2452;SDS011;63678;47.994;7.854;2023-04-02T17:17:59;5.75;;;2.40;;
2452;SDS011;63678;47.994;7.854;2023-04-02T17:20:32;4.65;;;2.47;;
2452;SDS011;63678;47.994;7.854;2023-04-02T17:23:12;3.60;;;1.83;;
2452;SDS011;63678;47.994;7.854;2023-04-02T17:25:53;5.47;;;1.92;;
2452;SDS011;63678;47.994;7.854;2023-04-02T17:28:32;5.10;;;2.17;;
2452;SDS011;63678;47.994;7.854;2023-04-02T17:31:10;3.63;;;1.90;;
2452;SDS011;63678;47.994;7.854;2023-04-02T17:33:51;3.50;;;1.60;;
2452;SDS011;63678;47.994;7.854;2023-04-02T17:39:31;4.75;;;2.13;;
2452;SDS011;63678;47.994;7.854;2023-04-02T17:42:42;3.55;;;1.70;;
2452;SDS011;63678;47.994;7.854;2023-04-02T17:45:50;3.37;;;1.60;;
2452;SDS011;63678;47.994;7.854;2023-04-02T17:51:33;4.85;;;1.80;;
2452;SDS011;63678;47.994;7.854;2023-04-02T17:57:15;3.70;;;2.20;;
2452;SDS011;63678;47.994;7.854;2023-04-02T18:06:13;4.97;;;2.28;;
2452;SDS011;63678;47.994;7.854;2023-04-02T18:09:34;4.05;;;2.10;;
2452;SDS011;63678;47.994;7.854;2023-04-02T18:18:44;4.57;;;2.40;;
2452;SDS011;63678;47.994;7.854;2023-04-02T18:25:09;4.72;;;2.50;;
2452;SDS011;63678;47.994;7.854;2023-04-02T18:28:26;4.03;;;2.03;;
2452;SDS011;63678;47.994;7.854;2023-04-02T18:31:34;6.87;;;3.07;;
2452;SDS011;63678;47.994;7.854;2023-04-02T18:34:33;6.97;;;2.78;;
2452;SDS011;63678;47.994;7.854;2023-04-02T18:46:13;4.97;;;2.57;;
2452;SDS011;63678;47.994;7.854;2023-04-02T18:48:58;4.82;;;2.30;;
2452;SDS011;63678;47.994;7.854;2023-04-02T18:51:48;4.18;;;2.30;;
2452;SDS011;63678;47.994;7.854;2023-04-02T18:54:45;4.30;;;2.00;;
2452;SDS011;63678;47.994;7.854;2023-04-02T18:57:45;5.15;;;2.47;;
2452;SDS011;63678;47.994;7.854;2023-04-02T19:00:27;13.67;;;7.60;;
2452;SDS011;63678;47.994;7.854;2023-04-02T19:03:15;4.85;;;2.53;;
2452;SDS011;63678;47.994;7.854;2023-04-02T19:06:08;5.45;;;2.65;;
2452;SDS011;63678;47.994;7.854;2023-04-02T19:08:50;3.90;;;2.17;;
2452;SDS011;63678;47.994;7.854;2023-04-02T19:11:32;4.03;;;2.28;;
2452;SDS011;63678;47.994;7.854;2023-04-02T19:14:08;4.17;;;2.17;;
2452;SDS011;63678;47.994;7.854;2023-04-02T19:17:00;5.13;;;1.98;;
2452;SDS011;63678;47.994;7.854;2023-04-02T19:20:07;5.20;;;2.88;;
2452;SDS011;63678;47.994;7.854;2023-04-02T19:26:08;4.32;;;2.30;;
2452;SDS011;63678;47.994;7.854;2023-04-02T19:32:13;4.90;;;2.30;;
2452;SDS011;63678;47.994;7.854;2023-04-02T19:35:21;3.95;;;2.58;;
2452;SDS011;63678;47.994;7.854;2023-04-02T19:38:22;5.35;;;2.50;;
2452;SDS011;63678;47.994;7.854;2023-04-02T19:44:10;5.40;;;2.60;;
2452;SDS011;63678;47.994;7.854;2023-04-02T19:46:46;4.18;;;2.30;;
2452;SDS011;63678;47.994;7.854;2023-04-02T19:49:24;3.72;;;2.33;;
2452;SDS011;63678;47.994;7.854;2023-04-02T19:52:01;7.65;;;3.17;;
2452;SDS011;63678;47.994;7.854;2023-04-02T19:54:34;7.55;;;3.03;;
2452;SDS011;63678;47.994;7.854;2023-04-02T19:57:11;5.80;;;3.60;;
2452;SDS011;63678;47.994;7.854;2023-04-02T19:59:45;6.80;;;3.20;;
2452;SDS011;63678;47.994;7.854;2023-04-02T20:02:17;7.65;;;3.90;;
2452;SDS011;63678;47.994;7.854;2023-04-02T20:04:49;7.75;;;4.15;;
2452;SDS011;63678;47.994;7.854;2023-04-02T20:07:22;6.60;;;4.32;;
2452;SDS011;63678;47.994;7.854;2023-04-02T20:10:15;7.60;;;5.77;;
2452;SDS011;63678;47.994;7.854;2023-04-02T20:12:47;9.70;;;6.90;;
2452;SDS011;63678;47.994;7.854;2023-04-02T20:15:21;9.02;;;6.50;;
2452;SDS011;63678;47.994;7.854;2023-04-02T20:17:54;11.63;;;8.05;;
2452;SDS011;63678;47.994;7.854;2023-04-02T20:20:26;10.95;;;8.20;;
2452;SDS011;63678;47.994;7.854;2023-04-02T20:22:59;13.10;;;9.53;;
2452;SDS011;63678;47.994;7.854;2023-04-02T20:25:32;12.68;;;9.57;;
2452;SDS011;63678;47.994;7.854;2023-04-02T20:28:04;13.07;;;10.20;;
2452;SDS011;63678;47.994;7.854;2023-04-02T20:30:38;13.05;;;9.98;;
2452;SDS011;63678;47.994;7.854;2023-04-02T20:33:10;15.75;;;9.10;;
2452;SDS011;63678;47.994;7.854;2023-04-02T20:35:43;14.33;;;10.40;;
2452;SDS011;63678;47.994;7.854;2023-04-02T20:38:16;13.40;;;10.63;;
2452;SDS011;63678;47.994;7.854;2023-04-02T20:40:52;14.60;;;10.60;;
2452;SDS011;63678;47.994;7.854;2023-04-02T20:43:25;14.63;;;11.10;;
2452;SDS011;63678;47.994;7.854;2023-04-02T20:45:59;13.88;;;10.57;;
2452;SDS011;63678;47.994;7.854;2023-04-02T20:48:36;13.93;;;10.57;;
2452;SDS011;63678;47.994;7.854;2023-04-02T20:51:10;13.27;;;10.27;;
2452;SDS011;63678;47.994;7.854;2023-04-02T20:53:45;14.55;;;10.90;;
2452;SDS011;63678;47.994;7.854;2023-04-02T20:56:18;15.63;;;11.20;;
2452;SDS011;63678;47.994;7.854;2023-04-02T20:58:53;14.82;;;10.77;;
2452;SDS011;63678;47.994;7.854;2023-04-02T21:01:27;13.67;;;10.63;;
2452;SDS011;63678;47.994;7.854;2023-04-02T21:04:01;13.50;;;10.52;;
2452;SDS011;63678;47.994;7.854;2023-04-02T21:06:35;16.13;;;11.63;;
2452;SDS011;63678;47.994;7.854;2023-04-02T21:09:12;15.38;;;10.52;;